Time;durP1;ratioP1;P1;durP2;ratioP2;P2;SDS_P1;SDS_P2;PMS_P1;PMS_P2;Temp;Humidity;BMP_temperature;BMP_pressure;BME280_temperature;BME280_humidity;BME280_pressure;Samples;Min_cycle;Max_cycle;Signal;HPM_P1;HPM_P2
2022/11/04 00:00:19;;;;;;;0.80;0.80;;;;;;;17.07;100.00;101417.19;2617126;54;20145;-65
2022/11/04 00:02:55;;;;;;;0.00;0.00;;;;;;;17.24;100.00;101414.13;2617463;54;20157;-65
2022/11/04 00:05:25;;;;;;;0.00;0.00;;;;;;;17.40;100.00;101420.81;2617042;54;20145;-65
2022/11/04 00:13:20;;;;;;;0.00;0.00;;;;;;;17.30;100.00;101420.69;2617039;54;20148;-65
2022/11/04 00:18:37;;;;;;;0.20;0.20;;;;;;;16.99;100.00;101413.47;2616987;54;20161;-65
2022/11/04 00:29:14;;;;;;;1.17;1.13;;;;;;;17.07;100.00;101418.97;2617398;54;20320;-65
2022/11/04 00:34:29;;;;;;;0.22;0.22;;;;;;;17.10;100.00;101403.84;2617085;54;20271;-65
2022/11/04 00:37:01;;;;;;;0.00;0.00;;;;;;;17.23;100.00;101401.97;2616573;54;20158;-65
2022/11/04 00:39:32;;;;;;;0.00;0.00;;;;;;;17.31;100.00;101402.22;2616895;54;20175;-64
2022/11/04 00:42:02;;;;;;;0.00;0.00;;;;;;;17.17;100.00;101402.41;2617521;54;20146;-65
2022/11/04 00:44:32;;;;;;;0.85;0.17;;;;;;;16.86;100.00;101403.06;2617552;54;20146;-64
2022/11/04 00:47:04;;;;;;;0.05;0.05;;;;;;;17.02;100.00;101406.22;2617461;54;20193;-64
2022/11/04 00:49:34;;;;;;;2.67;2.47;;;;;;;17.03;100.00;101412.31;2617813;54;20141;-65
2022/11/04 00:52:05;;;;;;;0.47;0.38;;;;;;;16.50;100.00;101409.25;2617651;54;20177;-65
2022/11/04 00:54:35;;;;;;;0.88;0.88;;;;;;;16.27;100.00;101395.22;2617744;54;20232;-63
2022/11/04 00:57:05;;;;;;;6.18;3.40;;;;;;;16.07;100.00;101387.97;2618025;54;20270;-65
2022/11/04 00:59:35;;;;;;;0.00;0.00;;;;;;;16.62;100.00;101387.41;2617430;54;20233;-65
2022/11/04 01:02:08;;;;;;;0.00;0.00;;;;;;;16.46;100.00;101393.84;2617960;39;20672;-65
2022/11/04 01:04:38;;;;;;;0.10;0.10;;;;;;;16.59;100.00;101379.78;2617679;54;20197;-65
2022/11/04 01:07:08;;;;;;;0.20;0.20;;;;;;;16.80;100.00;101379.97;2617964;39;20734;-64
2022/11/04 01:09:38;;;;;;;0.00;0.00;;;;;;;17.01;100.00;101380.94;2618111;54;20153;-64
2022/11/04 01:12:08;;;;;;;0.00;0.00;;;;;;;17.00;100.00;101374.06;2617611;54;20241;-65
2022/11/04 01:14:39;;;;;;;0.00;0.00;;;;;;;16.90;100.00;101373.06;2617895;47;20675;-65
2022/11/04 01:17:12;;;;;;;0.00;0.00;;;;;;;16.89;100.00;101371.38;2618338;39;20548;-64
2022/11/04 01:19:42;;;;;;;0.28;0.28;;;;;;;16.69;100.00;101361.59;2617620;54;20161;-65
2022/11/04 01:22:12;;;;;;;5.03;1.45;;;;;;;16.75;100.00;101374.22;2617712;54;20177;-65
2022/11/04 01:24:42;;;;;;;0.22;0.22;;;;;;;16.78;100.00;101368.75;2617425;54;20547;-65
2022/11/04 01:27:12;;;;;;;0.65;0.65;;;;;;;16.41;100.00;101351.47;2617554;54;20150;-64
2022/11/04 01:29:42;;;;;;;0.98;0.98;;;;;;;16.46;100.00;101355.41;2617734;54;20245;-65
2022/11/04 01:32:14;;;;;;;0.17;0.17;;;;;;;16.55;100.00;101359.97;2617784;54;20157;-64
2022/11/04 01:34:44;;;;;;;0.00;0.00;;;;;;;16.60;100.00;101357.88;2617900;54;20203;-64
2022/11/04 01:37:14;;;;;;;0.55;0.55;;;;;;;16.83;100.00;101356.13;2617835;54;20141;-65
2022/11/04 01:39:44;;;;;;;1.13;1.13;;;;;;;16.41;100.00;101346.25;2617464;54;20229;-65
2022/11/04 01:42:16;;;;;;;0.35;0.35;;;;;;;16.57;100.00;101339.75;2617738;54;20621;-65
2022/11/04 01:44:59;;;;;;;0.20;0.20;;;;;;;16.56;100.00;101339.84;2617392;54;20709;-65
2022/11/04 01:47:38;;;;;;;1.10;1.10;;;;;;;16.57;100.00;101344.19;2617591;54;20153;-65
2022/11/04 01:50:13;;;;;;;0.85;0.85;;;;;;;16.48;100.00;101348.28;2617458;54;20204;-69
2022/11/04 01:52:47;;;;;;;0.00;0.00;;;;;;;16.95;100.00;101349.13;2617435;54;20168;-65
2022/11/04 01:55:21;;;;;;;1.38;0.90;;;;;;;16.96;100.00;101359.50;2617518;54;20134;-65
2022/11/04 01:57:57;;;;;;;0.00;0.00;;;;;;;17.20;100.00;101352.38;2617415;54;20177;-65
2022/11/04 02:00:28;;;;;;;2.05;1.98;;;;;;;16.61;100.00;101356.91;2617480;54;20145;-66
2022/11/04 02:03:05;;;;;;;2.60;0.98;;;;;;;16.69;100.00;101354.53;2617683;54;20149;-66
2022/11/04 02:05:36;;;;;;;0.10;0.10;;;;;;;16.97;100.00;101342.00;2617711;54;20142;-64
2022/11/04 02:08:08;;;;;;;0.10;0.10;;;;;;;16.87;100.00;101347.09;2617781;54;20679;-65
2022/11/04 02:10:41;;;;;;;0.00;0.00;;;;;;;17.03;100.00;101354.63;2617758;54;20221;-65
2022/11/04 02:13:08;;;;;;;0.00;0.00;;;;;;;17.22;100.00;101347.00;2617466;54;20193;-65
2022/11/04 02:15:47;;;;;;;0.00;0.00;;;;;;;17.04;100.00;101351.06;2617601;54;20773;-65
2022/11/04 02:18:36;;;;;;;0.00;0.00;;;;;;;17.40;100.00;101347.38;2617638;54;20145;-65
2022/11/04 02:21:47;;;;;;;0.43;0.43;;;;;;;17.36;100.00;101354.66;2617514;54;20241;-65
2022/11/04 02:24:42;;;;;;;0.00;0.00;;;;;;;17.39;100.00;101346.53;2616947;54;20173;-65
2022/11/04 02:27:27;;;;;;;0.00;0.00;;;;;;;17.20;100.00;101349.75;2617890;54;20157;-65
2022/11/04 02:30:06;;;;;;;6.40;1.80;;;;;;;17.14;100.00;101350.22;2617646;54;20289;-65
2022/11/04 02:32:48;;;;;;;0.00;0.00;;;;;;;16.83;100.00;101346.50;2617469;54;20150;-65
2022/11/04 02:35:27;;;;;;;0.20;0.20;;;;;;;17.18;100.00;101335.06;2617487;54;20678;-65
2022/11/04 02:38:06;;;;;;;0.10;0.10;;;;;;;17.33;100.00;101339.16;2618012;39;20306;-65
2022/11/04 02:40:43;;;;;;;0.00;0.00;;;;;;;17.08;100.00;101345.47;2617088;54;20157;-65
2022/11/04 02:43:23;;;;;;;0.00;0.00;;;;;;;17.22;100.00;101350.47;2617569;39;20532;-65
2022/11/04 02:46:03;;;;;;;0.65;0.65;;;;;;;16.87;100.00;101349.72;2617018;54;20181;-64
2022/11/04 02:48:39;;;;;;;0.88;0.88;;;;;;;16.73;100.00;101352.56;2617213;54;20141;-64
2022/11/04 02:51:17;;;;;;;1.50;1.40;;;;;;;16.57;100.00;101349.41;2617587;54;20912;-64
2022/11/04 02:53:51;;;;;;;0.35;0.35;;;;;;;16.64;100.00;101348.84;2617396;54;20193;-64
2022/11/04 02:56:23;;;;;;;0.98;0.77;;;;;;;16.84;100.00;101342.09;2617535;54;20137;-65
2022/11/04 02:58:58;;;;;;;2.45;0.60;;;;;;;16.41;100.00;101349.66;2617858;54;20196;-64
2022/11/04 03:01:35;;;;;;;3.92;3.67;;;;;;;16.76;100.00;101349.69;2617169;54;20145;-64
2022/11/04 03:04:11;;;;;;;2.90;1.48;;;;;;;16.75;100.00;101341.00;2616796;54;20141;-65
2022/11/04 03:06:44;;;;;;;0.08;0.08;;;;;;;16.72;100.00;101346.47;2617400;39;20727;-64
2022/11/04 03:09:17;;;;;;;0.00;0.00;;;;;;;16.84;100.00;101350.78;2617294;54;20205;-64
2022/11/04 03:11:52;;;;;;;0.00;0.00;;;;;;;16.99;100.00;101337.44;2617201;54;20248;-65
2022/11/04 03:14:29;;;;;;;0.10;0.10;;;;;;;16.96;100.00;101340.31;2617217;54;20153;-64
2022/11/04 03:17:05;;;;;;;0.00;0.00;;;;;;;16.82;100.00;101329.09;2617495;54;20138;-65
2022/11/04 03:19:42;;;;;;;0.00;0.00;;;;;;;16.50;100.00;101329.81;2617239;54;20142;-64
2022/11/04 03:22:16;;;;;;;0.93;0.90;;;;;;;16.54;100.00;101329.47;2617561;54;20268;-65
2022/11/04 03:24:48;;;;;;;0.00;0.00;;;;;;;16.85;100.00;101317.53;2617216;54;20176;-64
2022/11/04 03:27:26;;;;;;;1.50;1.42;;;;;;;16.77;100.00;101325.16;2617270;54;20146;-65
2022/11/04 03:30:03;;;;;;;0.22;0.22;;;;;;;16.31;100.00;101331.19;2617198;54;20145;-64
2022/11/04 03:32:43;;;;;;;0.00;0.00;;;;;;;16.34;100.00;101325.72;2617290;54;20145;-65
2022/11/04 03:35:15;;;;;;;0.40;0.40;;;;;;;16.25;100.00;101318.53;2617559;54;20673;-64
2022/11/04 03:37:46;;;;;;;1.40;1.20;;;;;;;15.87;100.00;101315.28;2617941;39;20535;-65
2022/11/04 03:40:17;;;;;;;0.63;0.63;;;;;;;16.18;100.00;101314.72;2618007;54;20196;-65
2022/11/04 03:42:51;;;;;;;0.10;0.10;;;;;;;16.07;100.00;101319.91;2617136;54;20261;-65
2022/11/04 03:45:21;;;;;;;0.20;0.20;;;;;;;16.44;100.00;101315.41;2617242;54;20150;-65
2022/11/04 03:47:54;;;;;;;0.10;0.10;;;;;;;16.51;100.00;101308.75;2617389;54;20149;-65
2022/11/04 03:50:29;;;;;;;0.52;0.52;;;;;;;16.10;100.00;101309.19;2617977;54;20166;-65
2022/11/04 03:53:00;;;;;;;0.95;0.93;;;;;;;15.76;100.00;101310.00;2618213;39;20532;-65
2022/11/04 03:55:43;;;;;;;0.25;0.25;;;;;;;16.31;100.00;101306.78;2616913;47;20184;-65
2022/11/04 03:58:23;;;;;;;2.05;0.73;;;;;;;16.33;100.00;101316.19;2617667;39;20626;-65
2022/11/04 04:01:02;;;;;;;0.22;0.22;;;;;;;16.48;100.00;101310.78;2616989;54;20196;-65
2022/11/04 04:03:42;;;;;;;0.73;0.50;;;;;;;16.43;100.00;101311.09;2616837;54;20160;-65
2022/11/04 04:06:17;;;;;;;0.55;0.55;;;;;;;15.89;100.00;101313.38;2616828;47;20200;-65
2022/11/04 04:08:51;;;;;;;3.70;0.68;;;;;;;16.02;100.00;101301.06;2617181;54;20200;-65
2022/11/04 04:11:28;;;;;;;6.43;3.05;;;;;;;15.15;100.00;101319.50;2617078;54;20154;-65
2022/11/04 04:14:04;;;;;;;9.95;4.55;;;;;;;13.46;100.00;101321.97;2617373;54;20153;-65
2022/11/04 04:16:38;;;;;;;10.88;1.75;;;;;;;12.70;100.00;101332.72;2618262;39;20511;-65
2022/11/04 04:19:14;;;;;;;5.07;2.17;;;;;;;12.76;100.00;101332.38;2618231;54;20196;-64
2022/11/04 04:21:49;;;;;;;8.40;4.63;;;;;;;12.99;100.00;101331.84;2618242;54;20178;-64
2022/11/04 04:29:50;;;;;;;1.45;1.40;;;;;;;12.91;100.00;101334.91;2618253;54;20236;-65
2022/11/04 04:32:22;;;;;;;6.18;3.08;;;;;;;12.43;100.00;101335.16;2618090;54;20184;-65
2022/11/04 04:35:40;;;;;;;0.47;0.47;;;;;;;12.50;100.00;101323.47;2618008;54;20142;-65
2022/11/04 04:37:47;;;;;;;0.30;0.30;;;;;;;13.67;100.00;101321.56;2618115;54;20146;-65
2022/11/04 04:45:57;;;;;;;0.10;0.10;;;;;;;15.49;100.00;101317.16;2617961;54;20769;-65
2022/11/04 04:48:27;;;;;;;0.22;0.22;;;;;;;15.26;100.00;101313.53;2617500;54;20196;-66
2022/11/04 04:51:01;;;;;;;0.20;0.20;;;;;;;15.01;100.00;101319.59;2617886;54;20245;-66
2022/11/04 04:53:31;;;;;;;2.88;1.35;;;;;;;15.13;100.00;101318.75;2618017;54;20781;-65
2022/11/04 04:56:01;;;;;;;1.25;1.23;;;;;;;14.89;100.00;101321.28;2617754;54;20281;-65
2022/11/04 04:58:31;;;;;;;0.52;0.52;;;;;;;15.28;100.00;101320.34;2617355;54;20168;-65
2022/11/04 05:01:01;;;;;;;0.85;0.85;;;;;;;15.31;100.00;101304.44;2617837;54;20150;-65
2022/11/04 05:03:31;;;;;;;0.25;0.25;;;;;;;15.73;100.00;101315.41;2617795;47;20229;-64
2022/11/04 05:06:04;;;;;;;2.28;1.50;;;;;;;15.75;100.00;101314.38;2618197;50;20317;-65
2022/11/04 05:08:34;;;;;;;1.30;1.30;;;;;;;15.93;100.00;101317.44;2617758;47;20682;-65
2022/11/04 05:11:04;;;;;;;1.27;1.10;;;;;;;16.33;100.00;101316.19;2618054;54;20192;-65
2022/11/04 05:13:34;;;;;;;1.13;1.13;;;;;;;16.13;100.00;101314.19;2618154;47;20184;-66
2022/11/04 05:16:06;;;;;;;0.20;0.20;;;;;;;16.19;100.00;101324.25;2618404;54;20690;-65
2022/11/04 05:18:37;;;;;;;5.25;0.93;;;;;;;15.86;100.00;101331.91;2617792;54;20716;-65
2022/11/04 05:21:14;;;;;;;0.90;0.90;;;;;;;15.75;100.00;101332.69;2617424;54;20257;-65
2022/11/04 05:23:44;;;;;;;0.30;0.30;;;;;;;16.16;100.00;101339.34;2617800;54;20149;-65
2022/11/04 05:26:14;;;;;;;0.20;0.20;;;;;;;16.86;100.00;101332.31;2617217;54;20162;-65
2022/11/04 05:28:44;;;;;;;0.10;0.10;;;;;;;16.95;100.00;101339.47;2618181;31;20727;-66
2022/11/04 05:31:14;;;;;;;0.25;0.25;;;;;;;17.01;100.00;101338.19;2616844;54;20257;-65
2022/11/04 05:33:44;;;;;;;9.82;4.13;;;;;;;16.99;100.00;101333.06;2618228;46;20145;-66
2022/11/04 05:36:18;;;;;;;0.40;0.20;;;;;;;16.65;100.00;101333.97;2617511;54;20141;-65
2022/11/04 05:38:54;;;;;;;3.17;2.90;;;;;;;16.33;100.00;101333.69;2617073;54;20183;-65
2022/11/04 05:41:27;;;;;;;2.60;1.20;;;;;;;16.12;100.00;101333.50;2616751;54;20274;-65
2022/11/04 05:43:58;;;;;;;1.23;1.23;;;;;;;14.68;100.00;101342.81;2616716;54;20985;-65
2022/11/04 05:46:30;;;;;;;0.63;0.63;;;;;;;14.95;100.00;101351.41;2615304;54;20146;-66
2022/11/04 05:49:00;;;;;;;1.63;1.52;;;;;;;14.87;100.00;101361.53;2614658;47;20142;-65
2022/11/04 05:51:32;;;;;;;2.00;1.80;;;;;;;14.88;100.00;101360.59;2614705;54;20197;-65
2022/11/04 05:54:03;;;;;;;1.35;1.13;;;;;;;13.99;100.00;101362.09;2615718;54;20146;-65
2022/11/04 05:56:33;;;;;;;1.10;0.98;;;;;;;14.18;100.00;101367.81;2616684;54;20197;-63
2022/11/04 05:59:03;;;;;;;1.65;1.52;;;;;;;14.81;100.00;101351.47;2617312;31;20603;-65
2022/11/04 06:01:35;;;;;;;1.02;1.02;;;;;;;16.14;100.00;101351.69;2617622;31;20608;-65
2022/11/04 06:04:07;;;;;;;1.08;1.05;;;;;;;15.60;100.00;101352.09;2618267;54;20153;-65
2022/11/04 06:06:40;;;;;;;0.88;0.85;;;;;;;15.77;100.00;101353.50;2617468;54;20288;-65
2022/11/04 06:09:10;;;;;;;0.85;0.85;;;;;;;15.92;100.00;101344.56;2617724;54;20173;-64
2022/11/04 06:11:41;;;;;;;1.85;0.95;;;;;;;16.24;100.00;101350.09;2617426;54;20164;-65
2022/11/04 06:14:11;;;;;;;0.00;0.00;;;;;;;16.20;100.00;101346.88;2617530;54;20228;-65
2022/11/04 06:16:47;;;;;;;1.95;1.58;;;;;;;15.99;100.00;101348.41;2617569;51;20153;-66
2022/11/04 06:19:17;;;;;;;3.17;1.52;;;;;;;14.88;100.00;101352.75;2617549;39;20683;-65
2022/11/04 06:21:50;;;;;;;1.80;1.67;;;;;;;13.75;100.00;101366.25;2617594;54;20241;-64
2022/11/04 06:24:20;;;;;;;0.30;0.30;;;;;;;14.26;100.00;101369.94;2618236;54;20662;-65
2022/11/04 06:26:50;;;;;;;0.70;0.70;;;;;;;14.72;100.00;101357.34;2617707;54;20177;-67
2022/11/04 06:29:20;;;;;;;0.75;0.75;;;;;;;14.84;100.00;101361.75;2617523;54;20200;-66
2022/11/04 06:31:50;;;;;;;7.40;3.20;;;;;;;14.35;100.00;101359.78;2617215;54;20678;-65
2022/11/04 06:34:20;;;;;;;5.13;3.38;;;;;;;14.09;100.00;101368.41;2618134;47;20142;-67
2022/11/04 06:36:53;;;;;;;0.63;0.63;;;;;;;15.13;100.00;101363.19;2617735;54;20181;-66
2022/11/04 06:39:23;;;;;;;1.38;1.17;;;;;;;15.45;100.00;101353.97;2617719;47;20177;-66
2022/11/04 06:41:53;;;;;;;0.00;0.00;;;;;;;15.98;100.00;101362.44;2617669;54;20157;-65
2022/11/04 06:44:28;;;;;;;0.28;0.28;;;;;;;16.33;100.00;101358.09;2618012;54;20232;-66
2022/11/04 06:46:58;;;;;;;2.20;2.10;;;;;;;16.95;100.00;101357.84;2617441;47;20245;-66
2022/11/04 06:49:28;;;;;;;2.65;1.48;;;;;;;16.16;100.00;101355.88;2617279;54;20196;-66
2022/11/04 06:52:01;;;;;;;1.73;0.88;;;;;;;15.89;100.00;101355.25;2616950;47;20229;-66
2022/11/04 06:54:31;;;;;;;4.80;3.53;;;;;;;15.94;100.00;101361.00;2618210;54;20149;-65
2022/11/04 06:57:01;;;;;;;2.92;1.85;;;;;;;15.28;100.00;101362.16;2619720;54;20150;-67
2022/11/04 06:59:31;;;;;;;3.42;1.88;;;;;;;16.17;100.00;101357.53;2618215;54;20146;-65
2022/11/04 07:02:01;;;;;;;1.08;1.08;;;;;;;16.41;100.00;101356.72;2617332;54;20264;-65
2022/11/04 07:04:32;;;;;;;2.08;1.98;;;;;;;16.20;100.00;101354.72;2617498;54;20142;-65
2022/11/04 07:07:04;;;;;;;0.10;0.10;;;;;;;16.84;100.00;101349.94;2617751;54;20288;-65
2022/11/04 07:09:34;;;;;;;0.20;0.20;;;;;;;17.06;100.00;101349.97;2617485;54;20141;-65
2022/11/04 07:12:05;;;;;;;0.57;0.57;;;;;;;16.62;100.00;101342.88;2617445;54;20249;-66
2022/11/04 07:14:35;;;;;;;4.25;2.20;;;;;;;16.51;100.00;101345.44;2617667;54;20192;-65
2022/11/04 07:17:05;;;;;;;0.47;0.47;;;;;;;17.14;100.00;101339.72;2617418;54;20170;-66
2022/11/04 07:19:35;;;;;;;8.32;1.35;;;;;;;17.24;100.00;101342.47;2617869;47;20168;-66
2022/11/04 07:22:07;;;;;;;0.38;0.38;;;;;;;17.27;100.00;101332.59;2617408;39;20596;-65
2022/11/04 07:24:37;;;;;;;0.00;0.00;;;;;;;17.52;100.00;101331.50;2617562;54;20666;-66
2022/11/04 07:27:07;;;;;;;1.05;0.95;;;;;;;17.39;100.00;101327.31;2617301;54;20196;-66
2022/11/04 07:29:37;;;;;;;6.93;3.30;;;;;;;16.36;100.00;101336.94;2617065;54;20142;-65
2022/11/04 07:32:08;;;;;;;1.73;1.63;;;;;;;15.86;100.00;101331.91;2617194;54;20761;-66
2022/11/04 07:34:38;;;;;;;5.38;3.67;;;;;;;15.19;100.00;101328.81;2617206;54;20244;-66
2022/11/04 07:37:11;;;;;;;8.00;4.53;;;;;;;15.30;100.00;101331.50;2617049;54;20148;-65
2022/11/04 07:39:41;;;;;;;3.00;2.78;;;;;;;15.30;100.00;101334.13;2617627;39;20546;-66
2022/11/04 07:42:11;;;;;;;6.93;4.72;;;;;;;15.83;100.00;101329.53;2617149;54;20241;-65
2022/11/04 07:44:41;;;;;;;0.75;0.75;;;;;;;15.63;100.00;101332.72;2617426;54;20149;-66
2022/11/04 07:47:11;;;;;;;3.75;2.15;;;;;;;15.77;100.00;101322.09;2617300;54;20184;-65
2022/11/04 07:49:41;;;;;;;1.75;1.58;;;;;;;15.49;100.00;101325.81;2617933;31;20654;-65
2022/11/04 07:52:14;;;;;;;2.40;2.30;;;;;;;15.84;100.00;101325.97;2616815;50;20150;-65
2022/11/04 07:54:44;;;;;;;0.00;0.00;;;;;;;16.75;100.00;101321.81;2616668;54;20245;-66
2022/11/04 07:57:15;;;;;;;0.10;0.10;;;;;;;17.17;100.00;101321.13;2616377;54;20208;-66
2022/11/04 07:59:45;;;;;;;1.48;1.40;;;;;;;17.28;100.00;101326.41;2616955;54;20261;-65
2022/11/04 08:02:15;;;;;;;0.50;0.50;;;;;;;17.02;100.00;101314.44;2617683;31;20659;-65
2022/11/04 08:04:52;;;;;;;17.33;1.58;;;;;;;17.27;100.00;101308.97;2617042;54;20759;-67
2022/11/04 08:07:25;;;;;;;1.02;0.80;;;;;;;17.36;100.00;101306.59;2617782;54;20740;-64
2022/11/04 08:09:55;;;;;;;6.78;1.75;;;;;;;17.09;100.00;101305.16;2617365;54;20753;-64
2022/11/04 08:12:26;;;;;;;1.55;1.55;;;;;;;17.24;100.00;101309.22;2617399;54;20709;-65
2022/11/04 08:14:56;;;;;;;1.05;1.00;;;;;;;17.30;100.00;101298.25;2616932;54;20145;-66
2022/11/04 08:17:27;;;;;;;1.60;1.58;;;;;;;17.24;100.00;101285.63;2617202;50;20204;-65
2022/11/04 08:19:57;;;;;;;0.90;0.90;;;;;;;17.63;100.00;101283.44;2617273;39;20646;-65
2022/11/04 08:22:29;;;;;;;1.02;0.35;;;;;;;18.18;100.00;101287.66;2617231;54;20662;-65
2022/11/04 08:25:01;;;;;;;0.00;0.00;;;;;;;18.40;100.00;101279.66;2616961;54;20149;-65
2022/11/04 08:27:32;;;;;;;0.00;0.00;;;;;;;18.58;100.00;101277.31;2617058;54;20181;-65
2022/11/04 08:30:02;;;;;;;0.15;0.15;;;;;;;18.92;100.00;101272.66;2617021;54;20157;-66
2022/11/04 08:32:32;;;;;;;0.00;0.00;;;;;;;18.57;100.00;101271.22;2617624;54;20177;-65
2022/11/04 08:35:03;;;;;;;0.40;0.40;;;;;;;18.85;100.00;101269.72;2617324;54;20176;-65
2022/11/04 08:37:36;;;;;;;4.03;1.27;;;;;;;18.83;100.00;101263.75;2617047;54;20149;-65
2022/11/04 08:40:07;;;;;;;0.75;0.35;;;;;;;19.07;100.00;101266.88;2616835;54;20154;-64
2022/11/04 08:42:37;;;;;;;1.45;0.73;;;;;;;18.71;100.00;101251.66;2616531;54;20168;-65
2022/11/04 08:45:08;;;;;;;0.00;0.00;;;;;;;19.05;100.00;101260.94;2616532;54;20158;-65
2022/11/04 08:47:40;;;;;;;0.20;0.20;;;;;;;19.15;100.00;101256.53;2616542;54;20142;-64
2022/11/04 08:50:11;;;;;;;1.65;1.55;;;;;;;18.79;100.00;101259.72;2616766;54;20254;-66
2022/11/04 08:52:44;;;;;;;0.10;0.10;;;;;;;18.36;100.00;101261.66;2616834;51;20141;-65
2022/11/04 08:55:14;;;;;;;0.00;0.00;;;;;;;18.82;100.00;101254.19;2616795;47;20154;-65
2022/11/04 08:57:44;;;;;;;0.10;0.10;;;;;;;19.27;100.00;101248.53;2616730;54;20172;-64
2022/11/04 09:00:15;;;;;;;0.55;0.55;;;;;;;19.50;100.00;101244.72;2616776;54;20801;-65
2022/11/04 09:02:46;;;;;;;0.00;0.00;;;;;;;19.46;100.00;101238.91;2618235;47;20200;-65
2022/11/04 09:05:16;;;;;;;0.73;0.73;;;;;;;19.54;100.00;101235.59;2617329;54;20226;-66
2022/11/04 09:07:49;;;;;;;0.00;0.00;;;;;;;19.77;100.00;101239.66;2617640;54;20220;-65
2022/11/04 09:10:19;;;;;;;0.00;0.00;;;;;;;19.97;100.00;101240.47;2618017;39;20490;-65
2022/11/04 09:12:50;;;;;;;0.00;0.00;;;;;;;19.98;100.00;101235.06;2617202;54;20164;-67
2022/11/04 09:15:20;;;;;;;0.00;0.00;;;;;;;19.94;100.00;101238.13;2617953;54;20237;-66
2022/11/04 09:17:50;;;;;;;2.15;2.00;;;;;;;19.77;100.00;101236.19;2617217;47;20149;-66
2022/11/04 09:20:20;;;;;;;0.00;0.00;;;;;;;19.81;100.00;101233.13;2617908;54;20142;-66
2022/11/04 09:22:53;;;;;;;0.30;0.30;;;;;;;20.00;100.00;101227.84;2617518;39;20571;-65
2022/11/04 09:25:23;;;;;;;0.52;0.52;;;;;;;19.49;100.00;101224.66;2617478;47;20249;-66
2022/11/04 09:27:53;;;;;;;0.30;0.22;;;;;;;18.93;100.00;101221.72;2617767;54;20674;-66
2022/11/04 09:30:23;;;;;;;8.90;2.55;;;;;;;19.17;100.00;101211.69;2617379;47;20150;-65
2022/11/04 09:32:53;;;;;;;1.42;1.33;;;;;;;19.66;100.00;101205.53;2617313;47;20189;-67
2022/11/04 09:35:23;;;;;;;0.00;0.00;;;;;;;19.77;100.00;101200.16;2617457;39;20253;-66
2022/11/04 09:37:57;;;;;;;0.03;0.03;;;;;;;20.01;100.00;101195.28;2617152;54;20237;-66
2022/11/04 09:40:27;;;;;;;0.00;0.00;;;;;;;20.09;100.00;101190.13;2617600;54;20153;-66
2022/11/04 09:43:11;;;;;;;3.85;1.20;;;;;;;20.01;100.00;101187.38;2617424;47;20142;-66
2022/11/04 09:45:45;;;;;;;8.50;2.72;;;;;;;20.05;100.00;101188.75;2617832;39;20664;-65
2022/11/04 09:48:23;;;;;;;0.57;0.55;;;;;;;20.13;100.00;101185.41;2617707;54;20145;-65
2022/11/04 09:50:57;;;;;;;0.00;0.00;;;;;;;20.29;100.00;101175.16;2617891;54;20141;-64
2022/11/04 09:53:39;;;;;;;1.40;1.30;;;;;;;20.02;100.00;101167.13;2617251;47;20150;-65
2022/11/04 09:56:18;;;;;;;0.00;0.00;;;;;;;20.41;100.00;101167.88;2617666;54;20165;-65
2022/11/04 09:58:48;;;;;;;1.70;1.60;;;;;;;20.41;100.00;101167.88;2617277;54;20141;-64
2022/11/04 10:01:30;;;;;;;0.45;0.45;;;;;;;20.40;100.00;101159.16;2618210;54;20273;-65
2022/11/04 10:04:24;;;;;;;10.65;1.35;;;;;;;20.31;100.00;101157.38;2618086;54;20138;-65
2022/11/04 10:07:10;;;;;;;0.47;0.30;;;;;;;20.35;100.00;101160.53;2617303;47;20736;-66
2022/11/04 10:09:53;;;;;;;2.72;2.42;;;;;;;20.04;100.00;101152.84;2617585;39;20581;-65
2022/11/04 10:12:40;;;;;;;12.63;4.90;;;;;;;19.85;100.00;101152.88;2616985;54;20274;-66
2022/11/04 10:15:25;;;;;;;2.58;1.45;;;;;;;20.01;100.00;101136.50;2617531;54;20157;-65
2022/11/04 10:18:07;;;;;;;0.22;0.22;;;;;;;20.06;100.00;101137.69;2617506;47;20304;-66
2022/11/04 10:20:51;;;;;;;13.65;2.30;;;;;;;20.08;100.00;101130.50;2617559;47;20226;-65
2022/11/04 10:23:26;;;;;;;0.10;0.10;;;;;;;20.34;100.00;101125.44;2617135;54;20156;-65
2022/11/04 10:26:06;;;;;;;1.35;1.35;;;;;;;20.24;100.00;101135.16;2618260;54;20276;-66
2022/11/04 10:28:42;;;;;;;0.38;0.38;;;;;;;20.22;100.00;101126.56;2617446;54;20321;-65
2022/11/04 10:31:17;;;;;;;1.95;1.85;;;;;;;20.38;100.00;101116.28;2617162;54;20196;-65
2022/11/04 10:33:52;;;;;;;4.40;2.42;;;;;;;20.20;100.00;101114.53;2618240;39;20550;-66
2022/11/04 10:36:22;;;;;;;1.02;0.65;;;;;;;20.42;100.00;101116.84;2617736;39;20802;-65
2022/11/04 10:38:56;;;;;;;0.35;0.35;;;;;;;20.33;100.00;101104.53;2618460;31;20692;-64
2022/11/04 10:41:34;;;;;;;0.52;0.52;;;;;;;20.18;100.00;101077.75;2617153;54;20184;-65
2022/11/04 10:44:10;;;;;;;15.00;3.22;;;;;;;19.85;100.00;101100.22;2617486;39;20573;-65
2022/11/04 10:46:53;;;;;;;1.23;0.80;;;;;;;19.53;100.00;101104.97;2617094;54;20164;-65
2022/11/04 10:49:44;;;;;;;2.13;1.95;;;;;;;19.85;100.00;101109.91;2616913;31;20652;-66
2022/11/04 10:52:36;;;;;;;3.20;0.75;;;;;;;19.77;100.00;101063.22;2617606;54;20188;-64
2022/11/04 10:55:17;;;;;;;4.75;1.35;;;;;;;20.31;100.00;101093.28;2617246;51;20229;-65
2022/11/04 10:57:50;;;;;;;0.63;0.20;;;;;;;20.28;100.00;101078.56;2617524;54;20159;-65
2022/11/04 11:00:39;;;;;;;0.17;0.17;;;;;;;20.45;100.00;101077.00;2617197;54;20161;-65
2022/11/04 11:03:26;;;;;;;0.30;0.20;;;;;;;20.20;100.00;101065.28;2617300;54;20690;-64
2022/11/04 11:06:11;;;;;;;3.55;2.83;;;;;;;19.51;100.00;101062.97;2617086;47;20256;-66
